Time;durP1;ratioP1;P1;durP2;ratioP2;P2;SDS_P1;SDS_P2;PMS_P1;PMS_P2;Temp;Humidity;BMP_temperature;BMP_pressure;BME280_temperature;BME280_humidity;BME280_pressure;Samples;Min_cycle;Max_cycle;Signal;HPM_P1;HPM_P2
2023/02/09 00:01:55;;;;;;;9.67;4.43;;;;;;;;;;5018624;28;20205;-66
2023/02/09 00:04:21;;;;;;;11.63;4.70;;;;;;;;;;5030374;28;20185;-66
2023/02/09 00:06:46;;;;;;;8.20;3.97;;;;;;;;;;5028299;28;20295;-67
2023/02/09 00:09:11;;;;;;;9.33;4.30;;;;;;;;;;5036362;28;20201;-66
2023/02/09 00:14:21;;;;;;;10.97;4.53;;;;;;;;;;5027651;28;20194;-66
2023/02/09 00:16:47;;;;;;;9.73;4.10;;;;;;;;;;5024367;28;20190;-66
2023/02/09 00:19:13;;;;;;;11.23;4.37;;;;;;;;;;5028586;28;20198;-66
2023/02/09 00:21:39;;;;;;;10.93;4.50;;;;;;;;;;5033417;28;20209;-66
2023/02/09 00:24:06;;;;;;;10.83;4.23;;;;;;;;;;5036825;28;20649;-66
2023/02/09 00:26:32;;;;;;;8.67;5.00;;;;;;;;;;5022989;28;20198;-66
2023/02/09 00:28:57;;;;;;;12.40;4.63;;;;;;;;;;5032255;28;20740;-66
2023/02/09 00:31:23;;;;;;;9.07;4.80;;;;;;;;;;5031568;28;20233;-66
2023/02/09 00:33:48;;;;;;;12.57;4.83;;;;;;;;;;5037283;28;20193;-67
2023/02/09 00:36:14;;;;;;;10.87;4.53;;;;;;;;;;5035580;28;20208;-66
2023/02/09 00:38:42;;;;;;;9.90;4.83;;;;;;;;;;5028719;28;20194;-66
2023/02/09 00:41:08;;;;;;;11.43;5.20;;;;;;;;;;5032003;28;20602;-66
2023/02/09 00:43:33;;;;;;;12.37;4.63;;;;;;;;;;5029866;28;20665;-66
2023/02/09 00:45:59;;;;;;;10.80;5.10;;;;;;;;;;5030967;28;20232;-66
2023/02/09 00:48:25;;;;;;;10.27;5.00;;;;;;;;;;5030649;28;20220;-66
2023/02/09 00:50:51;;;;;;;9.73;4.80;;;;;;;;;;5028596;28;20198;-67
2023/02/09 00:53:18;;;;;;;10.60;5.27;;;;;;;;;;5036690;28;20191;-66
2023/02/09 00:55:44;;;;;;;9.70;4.63;;;;;;;;;;5028919;28;20190;-66
2023/02/09 00:58:09;;;;;;;11.57;5.23;;;;;;;;;;5035786;28;20193;-66
2023/02/09 01:00:35;;;;;;;10.63;5.00;;;;;;;;;;5031386;28;20214;-67
2023/02/09 01:03:00;;;;;;;12.87;5.20;;;;;;;;;;5036697;28;20194;-67
2023/02/09 01:05:25;;;;;;;10.00;4.70;;;;;;;;;;5035222;28;20237;-67
2023/02/09 01:07:51;;;;;;;12.03;5.00;;;;;;;;;;5034545;28;20201;-67
2023/02/09 01:10:16;;;;;;;10.13;4.67;;;;;;;;;;5036906;28;20193;-67
2023/02/09 01:12:42;;;;;;;11.07;5.00;;;;;;;;;;5028630;28;20511;-67
2023/02/09 01:15:09;;;;;;;10.80;4.87;;;;;;;;;;5030856;28;20190;-67
2023/02/09 01:17:36;;;;;;;13.53;5.37;;;;;;;;;;5032338;28;20642;-67
2023/02/09 01:20:03;;;;;;;14.23;5.60;;;;;;;;;;5025500;28;20240;-67
2023/02/09 01:22:29;;;;;;;10.77;5.23;;;;;;;;;;5033312;28;20226;-66
2023/02/09 01:24:54;;;;;;;11.33;4.80;;;;;;;;;;5029131;28;20190;-66
2023/02/09 01:27:19;;;;;;;11.60;4.77;;;;;;;;;;5022293;28;20206;-66
2023/02/09 01:29:45;;;;;;;10.17;5.13;;;;;;;;;;5035348;28;20319;-66
2023/02/09 01:32:10;;;;;;;11.07;5.00;;;;;;;;;;5022548;28;20182;-66
2023/02/09 01:34:36;;;;;;;11.53;5.10;;;;;;;;;;5035293;28;20248;-67
2023/02/09 01:37:01;;;;;;;12.43;5.90;;;;;;;;;;5029493;28;20194;-66
2023/02/09 01:39:27;;;;;;;10.03;4.90;;;;;;;;;;5023206;28;20536;-66
2023/02/09 01:41:52;;;;;;;12.93;5.33;;;;;;;;;;5029163;28;20221;-66
2023/02/09 01:44:17;;;;;;;12.33;5.63;;;;;;;;;;5025049;28;20192;-66
2023/02/09 01:46:43;;;;;;;10.93;5.70;;;;;;;;;;5024327;28;20256;-66
2023/02/09 01:49:19;;;;;;;13.00;5.83;;;;;;;;;;5030810;28;20281;-66
2023/02/09 01:51:53;;;;;;;14.47;5.50;;;;;;;;;;5024896;28;20187;-66
2023/02/09 01:54:23;;;;;;;12.57;5.20;;;;;;;;;;5022681;28;20194;-66
2023/02/09 01:56:53;;;;;;;11.90;5.40;;;;;;;;;;5027921;28;20185;-66
2023/02/09 01:59:19;;;;;;;12.27;5.67;;;;;;;;;;5028338;28;20208;-66
2023/02/09 02:01:45;;;;;;;16.70;6.00;;;;;;;;;;5032126;28;20213;-66
2023/02/09 02:04:11;;;;;;;14.30;5.70;;;;;;;;;;5026374;28;20699;-66
2023/02/09 02:06:36;;;;;;;13.57;5.47;;;;;;;;;;5027380;28;20206;-66
2023/02/09 02:09:09;;;;;;;13.27;5.97;;;;;;;;;;5030074;28;20297;-67
2023/02/09 02:11:35;;;;;;;13.93;5.50;;;;;;;;;;5026625;28;20217;-67
2023/02/09 02:14:01;;;;;;;10.30;5.47;;;;;;;;;;5026326;28;20189;-66
2023/02/09 02:16:26;;;;;;;12.90;5.67;;;;;;;;;;5031776;28;20233;-66
2023/02/09 02:19:10;;;;;;;11.77;5.70;;;;;;;;;;5027663;28;20183;-66
2023/02/09 02:22:12;;;;;;;13.77;5.40;;;;;;;;;;5020529;28;20206;-66
2023/02/09 02:24:56;;;;;;;9.63;4.97;;;;;;;;;;5027763;28;20185;-66
2023/02/09 02:27:56;;;;;;;15.47;5.50;;;;;;;;;;5017583;28;20277;-66
2023/02/09 02:30:48;;;;;;;13.37;5.53;;;;;;;;;;5028057;28;20182;-66
2023/02/09 02:33:37;;;;;;;11.17;5.50;;;;;;;;;;5012462;28;20675;-66
2023/02/09 02:36:28;;;;;;;11.23;5.57;;;;;;;;;;5014041;28;20569;-66
2023/02/09 02:39:03;;;;;;;13.43;6.17;;;;;;;;;;5022475;28;20551;-66
2023/02/09 02:42:47;;;;;;;13.83;6.27;;;;;;;;;;5035239;28;20220;-66
2023/02/09 02:44:25;;;;;;;11.27;5.57;;;;;;;;;;5021598;28;20203;-66
2023/02/09 02:46:56;;;;;;;17.93;6.50;;;;;;;;;;5024774;28;20701;-66
2023/02/09 02:49:45;;;;;;;12.77;5.40;;;;;;;;;;5025718;28;20273;-66
2023/02/09 02:52:11;;;;;;;13.77;6.30;;;;;;;;;;5017809;28;20674;-66
2023/02/09 02:54:40;;;;;;;13.13;5.87;;;;;;;;;;5029126;28;20261;-67
2023/02/09 02:57:12;;;;;;;13.50;6.03;;;;;;;;;;5038159;28;20186;-67
2023/02/09 02:59:43;;;;;;;11.73;5.87;;;;;;;;;;5029147;28;20245;-67
2023/02/09 03:02:18;;;;;;;15.90;5.77;;;;;;;;;;5022626;28;20205;-67
2023/02/09 03:04:47;;;;;;;15.53;6.13;;;;;;;;;;5023591;28;20269;-67
2023/02/09 03:07:16;;;;;;;12.50;6.20;;;;;;;;;;5025843;28;20213;-67
2023/02/09 03:09:53;;;;;;;14.00;6.10;;;;;;;;;;5026480;28;20194;-67
2023/02/09 03:12:33;;;;;;;14.10;6.37;;;;;;;;;;5018147;28;20183;-67
2023/02/09 03:15:40;;;;;;;14.53;6.47;;;;;;;;;;5023816;28;20237;-67
2023/02/09 03:18:23;;;;;;;14.80;6.30;;;;;;;;;;5024012;28;20206;-67
2023/02/09 03:20:57;;;;;;;14.90;5.93;;;;;;;;;;5017954;28;20189;-67
2023/02/09 03:23:40;;;;;;;14.30;6.50;;;;;;;;;;5021196;28;20190;-67
2023/02/09 03:26:11;;;;;;;14.87;6.10;;;;;;;;;;5025285;28;20585;-67
2023/02/09 03:28:40;;;;;;;14.53;6.20;;;;;;;;;;5026145;28;20205;-67
2023/02/09 03:31:07;;;;;;;11.60;5.87;;;;;;;;;;5026293;28;20840;-67
2023/02/09 03:33:35;;;;;;;13.33;5.50;;;;;;;;;;5025871;28;20197;-67
2023/02/09 03:36:05;;;;;;;17.43;7.13;;;;;;;;;;5024660;28;20234;-67
2023/02/09 03:38:31;;;;;;;13.10;5.90;;;;;;;;;;5025283;28;20182;-67
2023/02/09 03:40:56;;;;;;;14.07;6.40;;;;;;;;;;5025028;28;20562;-67
2023/02/09 03:44:25;;;;;;;13.20;6.23;;;;;;;;;;5010790;28;20225;-67
2023/02/09 03:46:08;;;;;;;13.93;5.97;;;;;;;;;;5029208;28;20214;-67
2023/02/09 03:48:34;;;;;;;12.63;6.13;;;;;;;;;;5029526;28;20642;-67
2023/02/09 03:50:59;;;;;;;13.53;6.13;;;;;;;;;;5021841;28;20191;-67
2023/02/09 03:53:25;;;;;;;11.17;6.23;;;;;;;;;;5020575;28;20196;-67
2023/02/09 03:55:50;;;;;;;14.47;6.47;;;;;;;;;;5020550;28;20594;-67
2023/02/09 03:58:15;;;;;;;15.80;6.50;;;;;;;;;;5020729;28;20640;-66
2023/02/09 04:00:41;;;;;;;14.40;6.10;;;;;;;;;;5022478;28;20693;-66
2023/02/09 04:03:06;;;;;;;14.70;6.80;;;;;;;;;;5021660;28;20262;-66
2023/02/09 04:05:31;;;;;;;15.03;6.43;;;;;;;;;;5018265;28;20224;-66
2023/02/09 04:07:59;;;;;;;12.93;6.53;;;;;;;;;;5026147;28;20198;-66
2023/02/09 04:10:24;;;;;;;14.43;6.10;;;;;;;;;;5027158;28;20205;-67
2023/02/09 04:12:50;;;;;;;14.23;6.93;;;;;;;;;;5024257;28;20182;-66
2023/02/09 04:15:15;;;;;;;14.83;6.43;;;;;;;;;;5025150;28;20205;-66
2023/02/09 04:17:40;;;;;;;15.97;7.00;;;;;;;;;;5029198;28;20182;-66
2023/02/09 04:20:06;;;;;;;13.87;6.33;;;;;;;;;;5029897;28;20716;-66
2023/02/09 04:22:32;;;;;;;12.50;6.37;;;;;;;;;;5021658;28;20199;-66
2023/02/09 04:24:57;;;;;;;13.60;6.77;;;;;;;;;;5025763;28;20242;-66
2023/02/09 04:27:22;;;;;;;11.33;6.07;;;;;;;;;;5028076;28;20208;-67
2023/02/09 04:29:48;;;;;;;12.63;6.03;;;;;;;;;;5024322;28;20197;-66
2023/02/09 04:32:13;;;;;;;12.93;6.00;;;;;;;;;;5031063;28;20186;-67
2023/02/09 04:34:39;;;;;;;14.80;6.77;;;;;;;;;;5037440;28;20657;-66
2023/02/09 04:37:04;;;;;;;14.97;6.37;;;;;;;;;;5036278;28;20185;-66
2023/02/09 04:39:30;;;;;;;13.10;6.13;;;;;;;;;;5022521;28;20214;-66
2023/02/09 04:41:56;;;;;;;14.70;6.20;;;;;;;;;;5030801;28;20189;-66
2023/02/09 04:44:21;;;;;;;12.53;5.90;;;;;;;;;;5030388;28;20194;-66
2023/02/09 04:46:47;;;;;;;17.90;6.87;;;;;;;;;;5040239;28;20559;-66
2023/02/09 04:49:12;;;;;;;14.90;6.40;;;;;;;;;;5027554;28;20198;-66
2023/02/09 04:51:38;;;;;;;11.70;6.00;;;;;;;;;;5028491;28;20592;-67
2023/02/09 04:54:03;;;;;;;13.77;6.07;;;;;;;;;;5033485;28;20720;-66
2023/02/09 04:56:28;;;;;;;16.23;6.37;;;;;;;;;;5027415;28;20240;-66
2023/02/09 05:01:38;;;;;;;15.80;6.27;;;;;;;;;;5032235;28;20248;-67
2023/02/09 05:04:03;;;;;;;13.60;6.33;;;;;;;;;;5027530;28;20206;-66
2023/02/09 05:06:29;;;;;;;14.27;6.23;;;;;;;;;;5025586;28;20300;-66
2023/02/09 05:08:54;;;;;;;15.47;5.60;;;;;;;;;;5039814;28;20602;-66
2023/02/09 05:11:20;;;;;;;11.93;6.30;;;;;;;;;;5042440;28;20264;-66
2023/02/09 05:13:45;;;;;;;13.23;6.97;;;;;;;;;;5023996;28;20595;-67
2023/02/09 05:16:14;;;;;;;13.33;6.57;;;;;;;;;;5043216;28;20220;-66
2023/02/09 05:18:40;;;;;;;16.20;6.20;;;;;;;;;;5040870;28;20194;-66
2023/02/09 05:21:05;;;;;;;12.43;6.17;;;;;;;;;;5039990;28;20229;-67
2023/02/09 05:23:31;;;;;;;14.53;6.30;;;;;;;;;;5037155;28;20245;-66
2023/02/09 05:25:56;;;;;;;12.40;6.13;;;;;;;;;;5030241;28;20245;-66
2023/02/09 05:28:23;;;;;;;12.93;6.53;;;;;;;;;;5030673;28;20213;-66
2023/02/09 05:30:52;;;;;;;15.30;6.90;;;;;;;;;;5023784;28;20222;-66
2023/02/09 05:33:22;;;;;;;12.60;6.63;;;;;;;;;;5034345;28;20201;-66
2023/02/09 05:35:50;;;;;;;15.27;6.27;;;;;;;;;;5030059;28;20229;-66
2023/02/09 05:38:15;;;;;;;11.47;6.70;;;;;;;;;;5043042;28;20185;-66
2023/02/09 05:40:41;;;;;;;13.53;6.50;;;;;;;;;;5027031;28;20186;-66
2023/02/09 05:43:06;;;;;;;15.17;6.67;;;;;;;;;;5023954;28;20657;-66
2023/02/09 05:45:31;;;;;;;15.87;6.53;;;;;;;;;;5041757;28;20301;-66
2023/02/09 05:47:57;;;;;;;12.53;6.17;;;;;;;;;;5026801;28;20274;-66
2023/02/09 05:50:22;;;;;;;12.73;6.03;;;;;;;;;;5029005;28;20190;-65
2023/02/09 05:52:47;;;;;;;13.53;6.80;;;;;;;;;;5039948;28;20182;-65
2023/02/09 05:55:13;;;;;;;13.27;5.97;;;;;;;;;;5037311;28;20186;-65
2023/02/09 05:57:38;;;;;;;11.23;6.40;;;;;;;;;;5033033;28;20775;-67
2023/02/09 06:00:05;;;;;;;12.07;5.93;;;;;;;;;;5026629;28;20217;-67
2023/02/09 06:02:30;;;;;;;15.80;6.60;;;;;;;;;;5039643;28;20265;-67
2023/02/09 06:04:55;;;;;;;13.07;6.33;;;;;;;;;;5038940;28;20732;-67
2023/02/09 06:07:21;;;;;;;13.50;6.03;;;;;;;;;;5035605;28;20293;-67
2023/02/09 06:09:46;;;;;;;14.60;6.67;;;;;;;;;;5038097;28;20189;-67
2023/02/09 06:12:11;;;;;;;14.13;6.93;;;;;;;;;;5037919;28;20660;-67
2023/02/09 06:14:37;;;;;;;12.83;6.40;;;;;;;;;;5035580;28;20216;-67
2023/02/09 06:17:02;;;;;;;15.77;6.90;;;;;;;;;;5034718;28;20236;-67
2023/02/09 06:19:29;;;;;;;17.73;6.90;;;;;;;;;;5035772;28;20178;-67
2023/02/09 06:21:54;;;;;;;13.83;6.73;;;;;;;;;;5032870;28;20174;-67
2023/02/09 06:24:19;;;;;;;16.17;7.43;;;;;;;;;;5026271;28;20809;-66
2023/02/09 06:26:45;;;;;;;14.53;6.67;;;;;;;;;;5028101;28;20242;-66
2023/02/09 06:29:10;;;;;;;11.63;6.30;;;;;;;;;;5029076;28;20650;-66
2023/02/09 06:31:36;;;;;;;15.47;6.53;;;;;;;;;;5028239;28;20201;-66
2023/02/09 06:34:04;;;;;;;14.03;6.13;;;;;;;;;;5034896;28;20558;-65
2023/02/09 06:36:30;;;;;;;20.43;7.20;;;;;;;;;;5035882;28;20166;-67
2023/02/09 06:38:55;;;;;;;19.37;7.87;;;;;;;;;;5033381;28;20188;-67
2023/02/09 06:41:21;;;;;;;13.07;6.43;;;;;;;;;;5029583;28;20209;-67
2023/02/09 06:43:46;;;;;;;13.50;7.20;;;;;;;;;;5028796;28;20189;-67
2023/02/09 06:46:12;;;;;;;14.63;7.03;;;;;;;;;;5026848;28;20220;-66
2023/02/09 06:48:38;;;;;;;14.23;7.17;;;;;;;;;;5029648;28;20190;-66
2023/02/09 06:51:12;;;;;;;14.00;6.53;;;;;;;;;;5026660;28;20297;-66
2023/02/09 06:53:39;;;;;;;14.00;6.33;;;;;;;;;;5028329;28;20181;-68
2023/02/09 06:56:05;;;;;;;16.63;7.70;;;;;;;;;;5032178;28;20332;-67
2023/02/09 06:58:31;;;;;;;14.90;6.90;;;;;;;;;;5032802;28;20197;-67
2023/02/09 07:01:11;;;;;;;14.83;6.83;;;;;;;;;;5041793;28;20699;-66
2023/02/09 07:03:37;;;;;;;15.73;7.30;;;;;;;;;;5035966;28;20182;-66
2023/02/09 07:06:04;;;;;;;16.27;7.37;;;;;;;;;;5041285;28;20210;-66
2023/02/09 07:08:30;;;;;;;16.67;7.07;;;;;;;;;;5034482;28;21235;-66
2023/02/09 07:10:55;;;;;;;17.57;7.10;;;;;;;;;;5023080;28;20809;-66
2023/02/09 07:13:20;;;;;;;15.33;6.70;;;;;;;;;;5036627;28;20293;-66
2023/02/09 07:15:55;;;;;;;14.23;7.13;;;;;;;;;;5025349;28;20712;-66
2023/02/09 07:18:20;;;;;;;14.83;7.07;;;;;;;;;;5040861;28;20188;-66
2023/02/09 07:20:53;;;;;;;12.43;6.83;;;;;;;;;;5039749;28;20190;-66
2023/02/09 07:23:18;;;;;;;14.80;6.77;;;;;;;;;;5029259;28;20585;-66
2023/02/09 07:25:43;;;;;;;16.10;7.07;;;;;;;;;;5035959;28;20186;-66
2023/02/09 07:28:09;;;;;;;17.43;7.77;;;;;;;;;;5041169;28;20272;-66
2023/02/09 07:30:35;;;;;;;15.60;6.90;;;;;;;;;;5036189;28;20182;-67
2023/02/09 07:33:01;;;;;;;14.70;7.37;;;;;;;;;;5031614;28;20189;-66
2023/02/09 07:35:26;;;;;;;15.70;7.30;;;;;;;;;;5030793;28;20289;-66
2023/02/09 07:37:51;;;;;;;16.80;7.60;;;;;;;;;;5032121;28;20277;-66
2023/02/09 07:40:17;;;;;;;13.93;6.93;;;;;;;;;;5007319;28;20285;-65
2023/02/09 07:42:42;;;;;;;14.17;7.53;;;;;;;;;;5041186;28;20181;-66
2023/02/09 07:45:08;;;;;;;15.33;7.10;;;;;;;;;;5041708;28;20276;-66
2023/02/09 07:47:34;;;;;;;15.90;7.77;;;;;;;;;;5044063;28;20236;-66
2023/02/09 07:49:59;;;;;;;13.87;7.43;;;;;;;;;;5042062;28;20630;-66
2023/02/09 07:52:25;;;;;;;14.97;8.03;;;;;;;;;;5045815;28;20193;-66
2023/02/09 07:54:50;;;;;;;16.87;7.97;;;;;;;;;;5034837;28;20415;-66
2023/02/09 07:57:15;;;;;;;17.17;7.60;;;;;;;;;;5046087;28;20182;-66
2023/02/09 07:59:41;;;;;;;14.17;7.07;;;;;;;;;;5041518;28;20288;-66
2023/02/09 08:02:17;;;;;;;18.03;7.90;;;;;;;;;;5047035;28;20201;-66
2023/02/09 08:04:43;;;;;;;17.77;8.27;;;;;;;;;;5034312;28;20185;-66
2023/02/09 08:07:08;;;;;;;15.13;7.33;;;;;;;;;;5039285;28;20611;-66
2023/02/09 08:09:34;;;;;;;15.57;8.03;;;;;;;;;;5032228;28;20218;-66
2023/02/09 08:12:03;;;;;;;14.27;7.40;;;;;;;;;;5033419;28;20228;-66
2023/02/09 08:14:38;;;;;;;19.40;7.50;;;;;;;;;;5042219;28;20218;-66
2023/02/09 08:17:21;;;;;;;15.93;8.20;;;;;;;;;;5036346;28;20188;-66
2023/02/09 08:19:57;;;;;;;12.67;7.07;;;;;;;;;;5036524;28;20649;-66
2023/02/09 08:22:27;;;;;;;15.43;7.33;;;;;;;;;;5035974;28;20182;-65
2023/02/09 08:24:52;;;;;;;16.23;8.17;;;;;;;;;;5028546;28;20602;-65
2023/02/09 08:27:17;;;;;;;15.67;7.87;;;;;;;;;;5037861;28;20257;-65
2023/02/09 08:29:43;;;;;;;18.67;8.47;;;;;;;;;;5033379;28;20224;-65
2023/02/09 08:32:08;;;;;;;16.27;7.87;;;;;;;;;;5045745;28;20720;-65
2023/02/09 08:34:34;;;;;;;14.93;7.53;;;;;;;;;;5044121;28;20225;-66
2023/02/09 08:36:59;;;;;;;17.33;7.43;;;;;;;;;;5043597;28;20186;-65
2023/02/09 08:39:24;;;;;;;17.27;7.90;;;;;;;;;;5045137;28;20185;-65
2023/02/09 08:41:50;;;;;;;16.73;8.23;;;;;;;;;;5042206;28;20593;-65
2023/02/09 08:44:15;;;;;;;14.87;8.10;;;;;;;;;;5050528;28;20197;-65
2023/02/09 08:46:40;;;;;;;15.07;8.03;;;;;;;;;;5048096;28;20209;-65
2023/02/09 08:49:06;;;;;;;14.13;7.37;;;;;;;;;;5050421;28;20219;-66
2023/02/09 08:51:31;;;;;;;16.30;8.23;;;;;;;;;;5046892;28;20186;-66
2023/02/09 08:53:56;;;;;;;19.33;8.67;;;;;;;;;;5043717;28;20190;-66
2023/02/09 08:56:22;;;;;;;14.00;7.73;;;;;;;;;;5046725;28;20633;-66
2023/02/09 08:58:48;;;;;;;16.07;8.33;;;;;;;;;;5047598;28;20181;-67
2023/02/09 09:01:14;;;;;;;14.80;7.83;;;;;;;;;;5032088;28;20218;-66
2023/02/09 09:03:41;;;;;;;17.73;8.20;;;;;;;;;;5035023;28;20181;-67
2023/02/09 09:06:07;;;;;;;14.23;8.10;;;;;;;;;;5048580;28;20270;-66
2023/02/09 09:08:35;;;;;;;15.57;8.13;;;;;;;;;;5043899;28;20636;-66
2023/02/09 09:11:01;;;;;;;17.23;8.20;;;;;;;;;;5045746;28;20266;-66
2023/02/09 09:13:26;;;;;;;15.83;8.40;;;;;;;;;;5044253;28;20209;-66
2023/02/09 09:15:54;;;;;;;14.37;7.60;;;;;;;;;;5040568;28;20197;-66
2023/02/09 09:18:20;;;;;;;14.50;8.07;;;;;;;;;;5045117;28;20296;-66
2023/02/09 09:20:45;;;;;;;14.87;7.67;;;;;;;;;;5041316;28;20181;-65
2023/02/09 09:23:11;;;;;;;14.83;7.93;;;;;;;;;;5041140;28;20269;-66
2023/02/09 09:25:38;;;;;;;14.90;8.10;;;;;;;;;;5041237;28;20584;-65
2023/02/09 09:28:03;;;;;;;15.80;7.63;;;;;;;;;;5038667;28;20181;-65
2023/02/09 09:30:29;;;;;;;14.57;7.97;;;;;;;;;;5037557;28;20710;-66
2023/02/09 09:32:54;;;;;;;16.33;8.23;;;;;;;;;;5034742;28;20646;-66
2023/02/09 09:35:20;;;;;;;16.80;8.00;;;;;;;;;;5028054;28;20230;-66
2023/02/09 09:37:45;;;;;;;16.70;7.37;;;;;;;;;;5034359;28;20174;-66
2023/02/09 09:40:33;;;;;;;14.87;8.20;;;;;;;;;;5038744;28;20186;-66
2023/02/09 09:43:03;;;;;;;16.67;8.70;;;;;;;;;;5039009;28;20592;-66
2023/02/09 09:45:30;;;;;;;15.37;7.87;;;;;;;;;;5044392;28;20189;-66
2023/02/09 09:47:56;;;;;;;16.17;8.17;;;;;;;;;;5036264;28;20218;-66
2023/02/09 09:50:29;;;;;;;14.90;8.10;;;;;;;;;;5041271;28;20252;-65
2023/02/09 09:53:23;;;;;;;14.00;7.87;;;;;;;;;;5039763;28;20217;-66
2023/02/09 09:55:54;;;;;;;14.73;7.93;;;;;;;;;;5038487;28;20232;-66
2023/02/09 09:58:19;;;;;;;15.83;7.63;;;;;;;;;;5036251;28;20206;-65
2023/02/09 10:00:46;;;;;;;16.03;8.03;;;;;;;;;;5035720;28;20225;-66
2023/02/09 10:03:17;;;;;;;16.73;8.37;;;;;;;;;;5037338;28;20593;-66
2023/02/09 10:05:45;;;;;;;16.20;8.40;;;;;;;;;;5030545;28;20268;-66
2023/02/09 10:08:18;;;;;;;16.33;8.60;;;;;;;;;;5038128;28;20187;-66
2023/02/09 10:11:03;;;;;;;17.83;8.40;;;;;;;;;;5027068;28;20257;-66
2023/02/09 10:13:34;;;;;;;18.13;8.47;;;;;;;;;;5036055;28;20185;-66
2023/02/09 10:16:00;;;;;;;17.13;7.87;;;;;;;;;;5037913;28;20409;-65
2023/02/09 10:18:28;;;;;;;15.10;7.80;;;;;;;;;;5034950;28;20190;-65
2023/02/09 10:21:05;;;;;;;17.97;8.33;;;;;;;;;;5031549;28;20178;-66
2023/02/09 10:23:37;;;;;;;14.67;8.37;;;;;;;;;;5028882;28;20194;-66
2023/02/09 10:26:06;;;;;;;15.13;8.63;;;;;;;;;;5021349;28;20284;-65
2023/02/09 10:28:38;;;;;;;16.73;8.40;;;;;;;;;;5033504;28;20201;-65
2023/02/09 10:31:10;;;;;;;16.73;8.33;;;;;;;;;;5030865;28;20195;-66
2023/02/09 10:33:40;;;;;;;13.67;8.00;;;;;;;;;;5034202;28;20243;-66
2023/02/09 10:36:19;;;;;;;16.40;8.47;;;;;;;;;;5030040;28;20257;-66
2023/02/09 10:38:44;;;;;;;15.20;8.23;;;;;;;;;;5042477;28;20182;-66
2023/02/09 10:41:13;;;;;;;14.07;8.03;;;;;;;;;;5024085;28;20383;-69
2023/02/09 10:43:38;;;;;;;17.53;8.77;;;;;;;;;;5034723;28;20216;-66
2023/02/09 10:46:15;;;;;;;17.73;9.20;;;;;;;;;;5023439;28;20202;-66
2023/02/09 10:48:44;;;;;;;15.47;8.13;;;;;;;;;;5044518;28;20178;-66
2023/02/09 10:51:27;;;;;;;21.53;8.57;;;;;;;;;;5036367;28;20237;-66
2023/02/09 10:53:57;;;;;;;12.93;8.03;;;;;;;;;;5029408;28;20170;-66
2023/02/09 10:56:33;;;;;;;12.30;7.43;;;;;;;;;;5018685;28;20191;-66
2023/02/09 10:59:00;;;;;;;17.13;8.57;;;;;;;;;;5043017;28;20174;-66
2023/02/09 11:01:31;;;;;;;15.27;8.50;;;;;;;;;;5025473;28;20313;-66
2023/02/09 11:04:02;;;;;;;13.13;8.03;;;;;;;;;;5029085;28;20222;-66
2023/02/09 11:06:39;;;;;;;14.73;8.53;;;;;;;;;;5016833;28;20677;-66
2023/02/09 11:09:12;;;;;;;15.70;8.53;;;;;;;;;;5030450;28;20186;-66
2023/02/09 11:11:40;;;;;;;16.93;8.47;;;;;;;;;;5003882;28;20190;-66
2023/02/09 11:14:11;;;;;;;19.50;8.83;;;;;;;;;;5040268;28;20261;-66
2023/02/09 11:16:52;;;;;;;18.00;9.47;;;;;;;;;;5030735;28;20186;-66
2023/02/09 11:19:45;;;;;;;19.50;10.37;;;;;;;;;;5036874;28;20193;-66
2023/02/09 11:22:29;;;;;;;20.40;10.43;;;;;;;;;;5030052;28;20195;-66
2023/02/09 11:25:25;;;;;;;19.93;10.80;;;;;;;;;;5040443;28;20226;-66
2023/02/09 11:27:56;;;;;;;17.17;10.40;;;;;;;;;;5025010;28;20794;-66
2023/02/09 11:30:59;;;;;;;20.33;10.73;;;;;;;;;;5027754;28;20288;-66
2023/02/09 11:33:59;;;;;;;17.80;9.87;;;;;;;;;;5041634;28;20182;-66
2023/02/09 11:36:53;;;;;;;20.43;10.47;;;;;;;;;;5018881;28;20314;-66
2023/02/09 11:39:25;;;;;;;17.07;10.27;;;;;;;;;;5030911;28;20209;-66
2023/02/09 11:44:52;;;;;;;18.57;10.70;;;;;;;;;;5046357;28;20186;-66
2023/02/09 11:47:26;;;;;;;21.23;12.00;;;;;;;;;;5038518;28;20193;-66
2023/02/09 11:49:55;;;;;;;20.87;12.07;;;;;;;;;;5032559;28;20192;-67
2023/02/09 11:52:43;;;;;;;19.53;11.40;;;;;;;;;;5044480;28;20209;-66
2023/02/09 11:55:36;;;;;;;20.83;12.20;;;;;;;;;;5045612;28;20349;-66
2023/02/09 11:58:18;;;;;;;22.60;11.83;;;;;;;;;;5039199;28;20230;-66
2023/02/09 12:00:52;;;;;;;20.73;11.80;;;;;;;;;;5039612;28;20202;-66
2023/02/09 12:03:18;;;;;;;22.37;12.57;;;;;;;;;;5041187;28;20646;-66
2023/02/09 12:05:44;;;;;;;17.73;11.37;;;;;;;;;;5046806;28;20245;-66
2023/02/09 12:08:47;;;;;;;21.70;12.00;;;;;;;;;;5043509;28;20602;-66
2023/02/09 12:11:38;;;;;;;19.07;10.63;;;;;;;;;;5035628;28;20189;-66
2023/02/09 12:14:31;;;;;;;19.37;10.93;;;;;;;;;;5023224;28;20197;-67
2023/02/09 12:17:12;;;;;;;20.60;10.50;;;;;;;;;;5016764;28;20190;-66
2023/02/09 12:19:42;;;;;;;18.10;10.00;;;;;;;;;;5031893;28;20178;-66
2023/02/09 12:22:33;;;;;;;20.43;10.63;;;;;;;;;;5026954;28;20190;-66
2023/02/09 12:25:10;;;;;;;21.70;11.07;;;;;;;;;;5027485;28;20264;-66
2023/02/09 12:27:37;;;;;;;18.53;10.57;;;;;;;;;;5048134;28;20205;-66
2023/02/09 12:30:41;;;;;;;18.10;10.87;;;;;;;;;;5030992;28;20193;-67
2023/02/09 12:33:21;;;;;;;19.97;10.27;;;;;;;;;;5039861;28;20219;-66
2023/02/09 12:36:02;;;;;;;16.50;9.83;;;;;;;;;;5026934;28;20771;-66
2023/02/09 12:38:49;;;;;;;16.07;10.07;;;;;;;;;;5040901;28;20196;-66
2023/02/09 12:41:17;;;;;;;14.70;8.93;;;;;;;;;;5027502;28;20704;-66
2023/02/09 12:43:44;;;;;;;19.23;9.43;;;;;;;;;;5029851;28;20693;-66
2023/02/09 12:46:22;;;;;;;15.93;9.03;;;;;;;;;;5047990;28;20236;-66
2023/02/09 12:49:03;;;;;;;15.30;8.93;;;;;;;;;;5035203;28;20265;-67
2023/02/09 12:51:41;;;;;;;15.03;8.57;;;;;;;;;;5019194;28;20182;-66
2023/02/09 12:54:34;;;;;;;16.67;8.87;;;;;;;;;;5041648;28;20185;-66
2023/02/09 12:57:14;;;;;;;20.77;8.90;;;;;;;;;;5038544;28;20713;-66
2023/02/09 12:59:49;;;;;;;15.30;9.37;;;;;;;;;;5028389;28;20181;-66
2023/02/09 13:02:36;;;;;;;13.53;8.77;;;;;;;;;;5034122;28;20275;-66
2023/02/09 13:05:10;;;;;;;18.40;8.53;;;;;;;;;;5021444;28;20209;-66
2023/02/09 13:07:48;;;;;;;16.93;8.60;;;;;;;;;;5023982;28;20216;-66
2023/02/09 13:10:26;;;;;;;15.87;9.27;;;;;;;;;;5027935;28;20185;-66
2023/02/09 13:13:06;;;;;;;17.90;9.50;;;;;;;;;;5022122;28;20173;-67
2023/02/09 13:16:03;;;;;;;19.60;9.00;;;;;;;;;;5028689;28;20185;-67
2023/02/09 13:18:44;;;;;;;17.17;9.03;;;;;;;;;;5036605;28;20198;-67
2023/02/09 13:21:34;;;;;;;15.90;9.07;;;;;;;;;;5020750;28;20718;-65
2023/02/09 13:24:13;;;;;;;16.90;9.00;;;;;;;;;;5027593;28;20190;-67
2023/02/09 13:26:53;;;;;;;15.63;9.50;;;;;;;;;;5041025;28;20202;-65
2023/02/09 13:29:21;;;;;;;16.47;9.47;;;;;;;;;;5031657;28;21257;-66
2023/02/09 13:32:08;;;;;;;17.13;9.13;;;;;;;;;;5034082;28;20190;-67
2023/02/09 13:35:00;;;;;;;16.17;9.47;;;;;;;;;;5032112;28;20225;-65
2023/02/09 13:37:44;;;;;;;16.17;9.40;;;;;;;;;;5024616;28;20224;-65
2023/02/09 13:40:33;;;;;;;17.57;9.43;;;;;;;;;;5028950;28;20210;-68
2023/02/09 13:43:01;;;;;;;18.10;9.90;;;;;;;;;;5040583;28;20177;-66
2023/02/09 13:45:28;;;;;;;15.50;9.53;;;;;;;;;;5043285;28;20193;-66
2023/02/09 13:47:55;;;;;;;17.37;10.03;;;;;;;;;;5036937;28;20687;-67
2023/02/09 13:50:23;;;;;;;17.80;10.17;;;;;;;;;;5040262;28;20182;-66
2023/02/09 13:52:49;;;;;;;16.47;9.87;;;;;;;;;;5041933;28;20193;-67
2023/02/09 13:55:19;;;;;;;18.00;10.37;;;;;;;;;;5037238;28;20268;-67
2023/02/09 13:57:50;;;;;;;16.77;9.57;;;;;;;;;;5039572;28;20256;-66
2023/02/09 14:00:23;;;;;;;19.37;10.63;;;;;;;;;;5039028;28;20260;-66
2023/02/09 14:02:53;;;;;;;17.73;9.63;;;;;;;;;;5036014;28;20275;-66
2023/02/09 14:05:47;;;;;;;18.67;9.80;;;;;;;;;;5029356;28;20213;-66
2023/02/09 14:08:15;;;;;;;20.30;10.40;;;;;;;;;;5025108;28;20284;-67
2023/02/09 14:10:46;;;;;;;19.23;9.70;;;;;;;;;;5029862;28;20194;-67
2023/02/09 14:13:23;;;;;;;17.37;9.43;;;;;;;;;;5036116;28;20205;-67
2023/02/09 14:18:46;;;;;;;16.53;9.87;;;;;;;;;;5033243;28;20308;-67
2023/02/09 14:21:14;;;;;;;18.60;9.77;;;;;;;;;;5038359;28;20277;-67
2023/02/09 14:23:45;;;;;;;19.13;10.53;;;;;;;;;;5029705;28;20198;-67
2023/02/09 14:26:13;;;;;;;16.73;10.13;;;;;;;;;;5042076;28;20209;-66
2023/02/09 14:28:40;;;;;;;18.63;10.63;;;;;;;;;;5037948;28;20217;-67
2023/02/09 14:31:24;;;;;;;18.37;10.10;;;;;;;;;;5045086;28;20193;-67
2023/02/09 14:33:53;;;;;;;17.57;10.53;;;;;;;;;;5038846;28;20186;-66
2023/02/09 14:36:33;;;;;;;21.93;10.97;;;;;;;;;;5034561;28;20222;-66
2023/02/09 14:39:15;;;;;;;19.20;11.67;;;;;;;;;;5033406;28;20189;-66
2023/02/09 14:42:01;;;;;;;21.83;11.53;;;;;;;;;;5034416;28;20181;-66
2023/02/09 14:44:27;;;;;;;20.43;10.43;;;;;;;;;;5035811;28;20273;-67
2023/02/09 14:46:58;;;;;;;20.83;10.63;;;;;;;;;;5041414;28;20271;-66
2023/02/09 14:49:24;;;;;;;21.20;10.93;;;;;;;;;;5037526;28;20190;-65
2023/02/09 14:52:09;;;;;;;20.83;11.13;;;;;;;;;;5035928;28;20185;-66
2023/02/09 14:54:46;;;;;;;21.03;11.10;;;;;;;;;;5041266;28;20268;-66
2023/02/09 14:57:12;;;;;;;20.27;11.10;;;;;;;;;;5036109;28;20205;-67
2023/02/09 14:59:37;;;;;;;19.70;11.50;;;;;;;;;;5041763;28;20251;-66
2023/02/09 15:02:15;;;;;;;21.77;11.47;;;;;;;;;;5040078;28;20181;-66